createdAt,value
2023-05-23T00:00:34.640Z,16.90
2023-05-23T00:03:03.725Z,16.80
2023-05-23T00:05:34.167Z,16.80
2023-05-23T00:08:03.897Z,16.70
2023-05-23T00:10:32.808Z,16.70
2023-05-23T00:13:01.674Z,16.70
2023-05-23T00:15:30.268Z,16.70
2023-05-23T00:18:04.133Z,16.70
2023-05-23T00:20:35.594Z,16.60
2023-05-23T00:23:04.311Z,16.60
2023-05-23T00:25:35.343Z,16.60
2023-05-23T00:28:05.793Z,16.60
2023-05-23T00:30:36.026Z,16.60
2023-05-23T00:33:04.668Z,16.60
2023-05-23T00:35:35.209Z,16.60
2023-05-23T00:38:03.937Z,16.50
2023-05-23T00:40:32.400Z,16.50
2023-05-23T00:43:01.738Z,16.50
2023-05-23T00:45:31.001Z,16.50
2023-05-23T00:48:00.524Z,16.50
2023-05-23T00:50:30.568Z,16.50
2023-05-23T00:53:02.651Z,16.50
2023-05-23T00:55:33.316Z,16.40
2023-05-23T00:58:02.569Z,16.40
2023-05-23T01:00:31.577Z,16.40
2023-05-23T01:03:01.477Z,16.40
2023-05-23T01:05:31.055Z,16.40
2023-05-23T01:08:03.345Z,16.30
2023-05-23T01:10:32.982Z,16.30
2023-05-23T01:13:12.261Z,16.30
2023-05-23T01:15:47.063Z,16.30
2023-05-23T01:18:18.587Z,16.30
2023-05-23T01:20:52.144Z,16.30
2023-05-23T01:23:59.402Z,16.30
2023-05-23T01:26:58.316Z,16.30
2023-05-23T01:29:30.865Z,16.20
2023-05-23T01:32:01.355Z,16.20
2023-05-23T01:34:32.060Z,16.20
2023-05-23T01:37:00.619Z,16.20
2023-05-23T01:39:29.057Z,16.20
2023-05-23T01:41:57.869Z,16.10
2023-05-23T01:44:30.291Z,16.10
2023-05-23T01:46:59.921Z,16.10
2023-05-23T01:49:29.386Z,16.10
2023-05-23T01:51:59.350Z,16.10
2023-05-23T01:54:29.657Z,16.10
2023-05-23T01:56:59.758Z,16.10
2023-05-23T01:59:30.328Z,16.10
2023-05-23T02:02:00.976Z,16.00
2023-05-23T02:04:30.172Z,15.90
2023-05-23T02:07:00.861Z,15.90
2023-05-23T02:09:29.627Z,15.90
2023-05-23T02:11:58.242Z,15.90
2023-05-23T02:14:29.440Z,15.90
2023-05-23T02:17:00.786Z,15.90
2023-05-23T02:19:29.561Z,15.90
2023-05-23T02:21:58.249Z,15.90
2023-05-23T02:24:26.568Z,15.90
2023-05-23T02:26:55.395Z,15.80
2023-05-23T02:29:24.688Z,15.90
2023-05-23T02:31:53.452Z,15.80
2023-05-23T02:34:23.541Z,15.80
2023-05-23T02:36:52.173Z,15.80
2023-05-23T02:39:21.362Z,15.80
2023-05-23T02:41:49.998Z,15.80
2023-05-23T02:44:20.013Z,15.80
2023-05-23T02:46:48.732Z,15.80
2023-05-23T02:49:17.336Z,15.90
2023-05-23T02:51:47.542Z,15.90
2023-05-23T02:54:17.014Z,15.80
2023-05-23T02:56:46.900Z,15.80
2023-05-23T02:59:17.996Z,15.80
2023-05-23T03:01:46.836Z,15.80
2023-05-23T03:04:15.501Z,15.80
2023-05-23T03:06:44.588Z,15.70
2023-05-23T03:09:18.213Z,15.70
2023-05-23T03:11:46.799Z,15.70
2023-05-23T03:14:15.478Z,15.60
2023-05-23T03:16:44.341Z,15.60
2023-05-23T03:19:12.988Z,15.60
2023-05-23T03:21:41.837Z,15.60
2023-05-23T03:24:10.911Z,15.60
2023-05-23T03:26:41.164Z,15.60
2023-05-23T03:29:11.276Z,15.60
2023-05-23T03:31:40.078Z,15.70
2023-05-23T03:34:08.566Z,15.70
2023-05-23T03:36:39.447Z,15.70
2023-05-23T03:39:08.116Z,15.70
2023-05-23T03:41:36.936Z,15.70
2023-05-23T03:44:07.996Z,15.70
2023-05-23T03:46:36.633Z,15.80
2023-05-23T03:49:05.760Z,15.70
2023-05-23T03:51:34.619Z,15.70
2023-05-23T03:54:03.180Z,15.70
2023-05-23T03:56:32.337Z,15.70
2023-05-23T03:59:01.497Z,15.60
2023-05-23T04:01:31.770Z,15.60
2023-05-23T04:04:00.919Z,15.50
2023-05-23T04:06:33.911Z,15.40
2023-05-23T04:09:03.413Z,15.30
2023-05-23T04:11:35.885Z,15.20
2023-05-23T04:14:05.383Z,15.20
2023-05-23T04:16:36.649Z,15.20
2023-05-23T04:19:06.374Z,15.20
2023-05-23T04:21:35.026Z,15.20
2023-05-23T04:24:09.955Z,15.20
2023-05-23T04:26:39.918Z,15.40
2023-05-23T04:29:08.670Z,15.60
2023-05-23T04:31:39.651Z,15.80
2023-05-23T04:34:08.309Z,15.90
2023-05-23T04:36:40.682Z,16.10
2023-05-23T04:39:10.867Z,16.20
2023-05-23T04:41:46.644Z,16.10
2023-05-23T04:44:41.907Z,16.10
2023-05-23T04:47:24.765Z,16.00
2023-05-23T04:50:00.740Z,16.00
2023-05-23T04:52:34.671Z,16.00
2023-05-23T04:55:04.255Z,16.00
2023-05-23T04:57:33.634Z,16.10
2023-05-23T05:00:08.079Z,16.20
2023-05-23T05:02:38.520Z,16.30
2023-05-23T05:05:09.616Z,16.50
2023-05-23T05:07:39.386Z,16.80
2023-05-23T05:10:17.274Z,16.90
2023-05-23T05:12:47.224Z,16.90
2023-05-23T05:15:17.934Z,16.90
2023-05-23T05:17:53.624Z,16.90
2023-05-23T05:20:23.731Z,16.90
2023-05-23T05:22:58.264Z,16.80
2023-05-23T05:25:27.861Z,16.80
2023-05-23T05:27:56.946Z,16.70
2023-05-23T05:30:26.974Z,16.70
2023-05-23T05:33:02.227Z,16.60
2023-05-23T05:35:31.290Z,16.50
2023-05-23T05:38:00.714Z,16.50
2023-05-23T05:40:29.382Z,16.40
2023-05-23T05:42:58.363Z,16.40
2023-05-23T05:45:27.523Z,16.50
2023-05-23T05:47:56.427Z,16.70
2023-05-23T05:50:28.494Z,16.90
2023-05-23T05:52:57.041Z,17.20
2023-05-23T05:55:25.594Z,17.60
2023-05-23T05:57:57.012Z,18.20
2023-05-23T06:00:27.940Z,18.60
2023-05-23T06:02:59.130Z,18.70
2023-05-23T06:05:51.696Z,18.50
2023-05-23T06:08:20.260Z,18.40
2023-05-23T06:10:49.080Z,18.10
2023-05-23T06:13:17.762Z,17.90
2023-05-23T06:15:51.213Z,17.70
2023-05-23T06:18:19.976Z,17.60
2023-05-23T06:20:52.852Z,17.50
2023-05-23T06:23:23.369Z,17.60
2023-05-23T06:25:52.002Z,17.70
2023-05-23T06:28:20.800Z,17.90
2023-05-23T06:30:49.201Z,18.20
2023-05-23T06:33:18.246Z,18.40
2023-05-23T06:35:46.639Z,18.50
2023-05-23T06:38:17.771Z,18.60
2023-05-23T06:40:47.042Z,18.60
2023-05-23T06:43:17.224Z,18.40
2023-05-23T06:45:48.721Z,18.30
2023-05-23T06:48:17.955Z,18.20
2023-05-23T06:50:48.631Z,18.00
2023-05-23T06:53:20.128Z,17.80
2023-05-23T06:55:50.930Z,17.80
2023-05-23T06:58:26.889Z,17.80
2023-05-23T07:00:58.962Z,17.80
2023-05-23T07:03:31.205Z,17.90
2023-05-23T07:06:04.070Z,17.90
2023-05-23T07:08:35.288Z,18.10
2023-05-23T07:11:06.882Z,18.30
2023-05-23T07:13:44.942Z,18.50
2023-05-23T07:16:22.367Z,18.60
2023-05-23T07:18:59.668Z,18.80
2023-05-23T07:21:28.549Z,19.10
2023-05-23T07:23:59.071Z,19.40
2023-05-23T07:26:27.852Z,19.80
2023-05-23T07:28:58.326Z,20.10
2023-05-23T07:31:28.073Z,20.50
2023-05-23T07:33:59.898Z,20.70
2023-05-23T07:36:42.733Z,21.00
2023-05-23T07:39:22.062Z,21.50
2023-05-23T07:41:52.545Z,21.50
2023-05-23T07:44:25.295Z,22.40
2023-05-23T07:46:55.433Z,23.70
2023-05-23T07:49:24.828Z,25.00
2023-05-23T07:51:55.360Z,26.10
2023-05-23T07:54:25.773Z,26.10
2023-05-23T07:56:58.436Z,25.10
2023-05-23T07:59:30.262Z,25.20
2023-05-23T08:01:59.437Z,25.60
2023-05-23T08:04:28.852Z,25.90
2023-05-23T08:07:05.519Z,26.50
2023-05-23T08:09:46.441Z,26.80
2023-05-23T08:12:20.537Z,26.90
2023-05-23T08:14:56.290Z,27.20
2023-05-23T08:17:28.365Z,28.20
2023-05-23T08:19:56.987Z,28.90
2023-05-23T08:22:25.959Z,28.90
2023-05-23T08:24:55.530Z,28.20
2023-05-23T08:27:24.952Z,26.90
2023-05-23T08:29:58.115Z,25.90
2023-05-23T08:32:26.954Z,25.20
2023-05-23T08:34:57.256Z,24.60
2023-05-23T08:37:26.463Z,24.30
2023-05-23T08:39:57.702Z,24.10
2023-05-23T08:42:41.423Z,23.80
2023-05-23T08:45:12.345Z,23.60
2023-05-23T08:47:45.253Z,23.70
2023-05-23T08:50:15.195Z,24.00
2023-05-23T08:52:49.349Z,24.30
2023-05-23T08:55:18.714Z,24.40
2023-05-23T08:57:48.442Z,24.90
2023-05-23T09:00:36.015Z,24.80
2023-05-23T09:03:04.683Z,24.80
2023-05-23T09:05:56.484Z,25.30
2023-05-23T09:08:26.539Z,25.40
2023-05-23T09:11:02.859Z,25.30
2023-05-23T09:13:36.978Z,25.60
2023-05-23T09:16:12.487Z,25.30
2023-05-23T09:18:51.779Z,25.40
2023-05-23T09:21:23.320Z,25.90
2023-05-23T09:24:12.451Z,25.80
2023-05-23T09:26:42.922Z,25.50
2023-05-23T09:29:11.679Z,25.30
2023-05-23T09:31:40.467Z,25.40
2023-05-23T09:34:10.917Z,25.00
2023-05-23T09:36:44.304Z,24.70
2023-05-23T09:39:15.054Z,24.20
2023-05-23T09:41:44.932Z,23.80
2023-05-23T09:44:16.332Z,23.30
2023-05-23T09:46:45.402Z,22.80
2023-05-23T09:49:19.492Z,22.30
2023-05-23T09:51:59.849Z,22.10
2023-05-23T09:54:28.707Z,21.80
2023-05-23T09:57:04.661Z,21.50
2023-05-23T09:59:36.909Z,21.40
2023-05-23T10:02:09.169Z,21.50
2023-05-23T10:04:40.457Z,21.50
2023-05-23T10:07:18.718Z,21.80
2023-05-23T10:09:52.754Z,22.30
2023-05-23T10:15:17.610Z,22.60
2023-05-23T10:18:01.353Z,23.00
2023-05-23T10:20:33.748Z,23.10
2023-05-23T10:23:05.520Z,23.70
2023-05-23T10:25:36.409Z,24.30
2023-05-23T10:28:07.313Z,24.90
2023-05-23T10:30:38.044Z,26.00
2023-05-23T10:33:08.778Z,26.90
2023-05-23T10:35:48.692Z,26.90
2023-05-23T10:38:28.226Z,26.70
2023-05-23T10:41:09.419Z,26.60
2023-05-23T10:43:47.292Z,25.40
2023-05-23T10:46:17.105Z,24.20
2023-05-23T10:48:46.649Z,23.70
2023-05-23T10:51:17.783Z,23.50
2023-05-23T10:53:51.338Z,23.30
2023-05-23T10:56:25.400Z,23.50
2023-05-23T10:58:56.187Z,23.50
2023-05-23T11:01:29.177Z,23.80
2023-05-23T11:03:58.829Z,24.00
2023-05-23T11:06:32.611Z,24.10
2023-05-23T11:09:07.797Z,24.00
2023-05-23T11:11:58.101Z,24.00
2023-05-23T11:14:54.435Z,24.00
2023-05-23T11:17:34.243Z,24.50
2023-05-23T11:20:07.684Z,25.10
2023-05-23T11:22:37.374Z,25.20
2023-05-23T11:25:10.648Z,25.10
2023-05-23T11:27:40.571Z,25.20
2023-05-23T11:30:13.874Z,25.30
2023-05-23T11:32:52.970Z,25.30
2023-05-23T11:35:23.165Z,25.10
2023-05-23T11:37:52.296Z,25.00
2023-05-23T11:40:31.165Z,24.90
2023-05-23T11:43:01.018Z,25.00
2023-05-23T11:45:30.877Z,25.40
2023-05-23T11:48:06.672Z,25.80
2023-05-23T11:50:36.386Z,26.60
2023-05-23T11:53:06.026Z,27.60
2023-05-23T11:55:36.186Z,28.50
2023-05-23T11:58:05.717Z,28.80
2023-05-23T12:00:34.516Z,28.60
2023-05-23T12:03:09.654Z,28.60
2023-05-23T12:05:38.339Z,28.90
2023-05-23T12:08:07.901Z,29.00
2023-05-23T12:10:36.510Z,29.20
2023-05-23T12:13:06.189Z,29.20
2023-05-23T12:15:35.018Z,29.10
2023-05-23T12:18:07.117Z,28.60
2023-05-23T12:20:36.671Z,28.30
2023-05-23T12:23:06.200Z,28.60
2023-05-23T12:25:42.978Z,28.60
2023-05-23T12:28:14.101Z,27.60
2023-05-23T12:30:46.502Z,27.00
2023-05-23T12:33:18.788Z,26.90
2023-05-23T12:35:47.858Z,27.30
2023-05-23T12:38:18.306Z,27.20
2023-05-23T12:40:47.556Z,27.60
2023-05-23T12:43:17.934Z,27.80
2023-05-23T12:45:46.166Z,28.40
2023-05-23T12:48:16.943Z,28.80
2023-05-23T12:50:46.325Z,28.90
2023-05-23T12:53:14.993Z,28.70
2023-05-23T12:55:43.645Z,28.40
2023-05-23T12:58:12.255Z,27.90
2023-05-23T13:00:41.462Z,26.80
2023-05-23T13:03:10.921Z,26.30
2023-05-23T13:05:40.990Z,26.10
2023-05-23T13:08:12.508Z,25.40
2023-05-23T13:10:40.777Z,25.10
2023-05-23T13:13:09.054Z,25.00
2023-05-23T13:15:37.643Z,24.50
2023-05-23T13:18:06.553Z,24.10
2023-05-23T13:20:34.794Z,24.00
2023-05-23T13:23:05.743Z,23.80
2023-05-23T13:25:34.105Z,23.70
2023-05-23T13:28:02.620Z,23.60
2023-05-23T13:30:31.299Z,23.60
2023-05-23T13:32:59.689Z,23.70
2023-05-23T13:35:28.278Z,23.90
2023-05-23T13:37:56.472Z,24.20
2023-05-23T13:40:26.343Z,24.20
2023-05-23T13:42:55.307Z,24.40
2023-05-23T13:45:23.479Z,24.80
2023-05-23T13:47:51.902Z,25.10
2023-05-23T13:50:20.241Z,25.50
2023-05-23T13:52:52.573Z,25.90
2023-05-23T13:55:21.356Z,26.00
2023-05-23T13:57:52.552Z,25.90
2023-05-23T14:00:21.249Z,25.80
2023-05-23T14:02:51.118Z,26.00
2023-05-23T14:05:20.391Z,26.10
2023-05-23T14:07:48.618Z,26.40
2023-05-23T14:10:17.506Z,26.90
2023-05-23T14:12:46.466Z,27.20
2023-05-23T14:15:16.019Z,27.40
2023-05-23T14:17:44.718Z,27.60
2023-05-23T14:20:15.316Z,28.30
2023-05-23T14:22:43.447Z,28.70
2023-05-23T14:25:11.702Z,29.00
2023-05-23T14:27:40.960Z,28.90
2023-05-23T14:30:10.592Z,28.40
2023-05-23T14:32:40.584Z,28.00
2023-05-23T14:35:11.078Z,27.30
2023-05-23T14:37:39.370Z,26.90
2023-05-23T14:40:10.341Z,26.70
2023-05-23T14:42:38.753Z,26.40
2023-05-23T14:45:08.022Z,26.20
2023-05-23T14:47:37.690Z,26.10
2023-05-23T14:50:08.750Z,25.70
2023-05-23T14:52:36.788Z,25.40
2023-05-23T14:55:05.630Z,25.10
2023-05-23T14:57:40.197Z,24.90
2023-05-23T15:00:10.425Z,24.60
2023-05-23T15:02:39.217Z,24.30
2023-05-23T15:05:23.241Z,23.90
2023-05-23T15:07:51.277Z,23.60
2023-05-23T15:10:19.418Z,23.40
2023-05-23T15:12:47.910Z,23.30
2023-05-23T15:15:22.971Z,23.50
2023-05-23T15:17:52.389Z,23.40
2023-05-23T15:20:22.206Z,23.30
2023-05-23T15:22:50.204Z,23.40
2023-05-23T15:25:26.960Z,23.40
2023-05-23T15:28:02.647Z,23.40
2023-05-23T15:30:30.781Z,23.40
2023-05-23T15:33:01.381Z,23.30
2023-05-23T15:35:31.663Z,23.20
2023-05-23T15:37:59.789Z,23.40
2023-05-23T15:40:27.994Z,23.30
2023-05-23T15:42:56.490Z,23.30
2023-05-23T15:45:25.176Z,23.10
2023-05-23T15:47:53.582Z,23.10
2023-05-23T15:50:22.107Z,23.60
2023-05-23T15:52:52.179Z,24.00
2023-05-23T15:55:20.351Z,23.90
2023-05-23T15:57:48.611Z,23.60
2023-05-23T16:00:17.566Z,23.40
2023-05-23T16:02:46.065Z,23.20
2023-05-23T16:05:15.597Z,23.00
2023-05-23T16:07:43.929Z,23.10
2023-05-23T16:10:14.535Z,23.10
2023-05-23T16:12:42.639Z,23.20
2023-05-23T16:15:12.734Z,23.30
2023-05-23T16:17:43.922Z,23.10
2023-05-23T16:20:12.570Z,23.00
2023-05-23T16:22:41.515Z,22.70
2023-05-23T16:25:13.117Z,22.30
2023-05-23T16:27:41.293Z,22.00
2023-05-23T16:30:10.591Z,21.90
2023-05-23T16:32:38.995Z,21.70
2023-05-23T16:35:08.830Z,21.50
2023-05-23T16:37:36.958Z,21.40
2023-05-23T16:40:05.761Z,21.30
2023-05-23T16:42:35.781Z,21.10
2023-05-23T16:45:04.167Z,20.90
2023-05-23T16:47:34.546Z,20.80
2023-05-23T16:50:02.770Z,20.60
2023-05-23T16:52:30.975Z,20.60
2023-05-23T16:55:03.931Z,20.60
2023-05-23T16:57:38.204Z,20.50
2023-05-23T17:00:07.894Z,20.50
2023-05-23T17:02:39.786Z,20.40
2023-05-23T17:05:08.994Z,20.30
2023-05-23T17:07:37.454Z,20.30
2023-05-23T17:10:14.017Z,20.10
2023-05-23T17:12:46.278Z,20.10
2023-05-23T17:15:15.176Z,20.00
2023-05-23T17:17:45.093Z,20.00
2023-05-23T17:20:13.506Z,20.10
2023-05-23T17:22:42.317Z,20.20
2023-05-23T17:25:11.227Z,20.20
2023-05-23T17:27:39.523Z,20.30
2023-05-23T17:30:14.518Z,20.40
2023-05-23T17:32:46.961Z,20.40
2023-05-23T17:35:15.268Z,20.40
2023-05-23T17:37:44.956Z,20.40
2023-05-23T17:40:14.136Z,20.20
2023-05-23T17:42:44.975Z,20.20
2023-05-23T17:45:20.618Z,20.10
2023-05-23T17:47:48.870Z,20.10
2023-05-23T17:50:20.582Z,19.90
2023-05-23T17:52:50.740Z,19.70
2023-05-23T17:55:19.110Z,19.50
2023-05-23T17:57:51.519Z,19.50
2023-05-23T18:00:22.332Z,19.30
2023-05-23T18:02:51.209Z,19.20
2023-05-23T18:05:20.797Z,19.20
2023-05-23T18:07:48.877Z,19.10
2023-05-23T18:10:19.255Z,19.00
2023-05-23T18:12:49.696Z,18.90
2023-05-23T18:15:18.133Z,18.70
2023-05-23T18:17:47.721Z,18.50
2023-05-23T18:20:16.682Z,18.30
2023-05-23T18:22:44.785Z,18.10
2023-05-23T18:25:19.532Z,17.90
2023-05-23T18:27:48.736Z,17.70
2023-05-23T18:30:17.101Z,17.50
2023-05-23T18:32:45.157Z,17.30
2023-05-23T18:35:16.038Z,17.10
2023-05-23T18:37:44.432Z,16.90
2023-05-23T18:40:15.393Z,16.70
2023-05-23T18:42:45.397Z,16.50
2023-05-23T18:45:13.553Z,16.30
2023-05-23T18:47:45.800Z,16.10
2023-05-23T18:50:15.325Z,15.90
2023-05-23T18:52:47.811Z,15.70
2023-05-23T18:55:18.632Z,15.60
2023-05-23T18:57:46.953Z,15.50
2023-05-23T19:00:16.061Z,15.30
2023-05-23T19:02:45.530Z,15.20
2023-05-23T19:05:15.802Z,15.10
2023-05-23T19:07:43.783Z,14.90
2023-05-23T19:10:12.758Z,14.80
2023-05-23T19:12:41.022Z,14.70
2023-05-23T19:15:15.490Z,14.60
2023-05-23T19:17:44.426Z,14.50
2023-05-23T19:20:13.804Z,14.40
2023-05-23T19:22:51.405Z,14.30
2023-05-23T19:25:22.065Z,14.20
2023-05-23T19:27:51.632Z,14.10
2023-05-23T19:30:20.393Z,14.00
2023-05-23T19:32:48.519Z,13.80
2023-05-23T19:35:17.476Z,13.70
2023-05-23T19:37:49.389Z,13.70
2023-05-23T19:40:17.965Z,13.60
2023-05-23T19:42:46.441Z,13.40
2023-05-23T19:45:15.212Z,13.30
2023-05-23T19:47:43.202Z,13.20
2023-05-23T19:50:14.045Z,13.10
2023-05-23T19:52:42.619Z,13.00
2023-05-23T19:55:14.596Z,12.90
2023-05-23T19:57:44.470Z,12.80
2023-05-23T20:00:14.894Z,12.80
2023-05-23T20:02:44.569Z,12.60
2023-05-23T20:05:13.449Z,12.50
2023-05-23T20:07:43.166Z,12.40
2023-05-23T20:10:14.442Z,12.40
2023-05-23T20:12:44.238Z,12.30
2023-05-23T20:15:15.861Z,12.20
2023-05-23T20:17:48.497Z,12.20
2023-05-23T20:20:16.900Z,12.10
2023-05-23T20:22:44.994Z,12.10
2023-05-23T20:25:14.713Z,12.00
2023-05-23T20:27:44.470Z,11.90
2023-05-23T20:30:13.883Z,11.90
2023-05-23T20:33:43.827Z,11.80
2023-05-23T20:36:12.696Z,11.80
2023-05-23T20:38:42.225Z,11.80
2023-05-23T20:41:14.663Z,11.80
2023-05-23T20:43:44.733Z,11.80
2023-05-23T20:46:19.001Z,11.80
2023-05-23T20:48:47.133Z,11.90
2023-05-23T20:51:15.190Z,11.90
2023-05-23T20:53:43.670Z,11.90
2023-05-23T20:56:15.740Z,12.00
2023-05-23T20:58:45.812Z,12.10
2023-05-23T21:01:15.717Z,12.10
2023-05-23T21:03:46.313Z,12.20
2023-05-23T21:06:14.747Z,12.20
2023-05-23T21:08:44.316Z,12.20
2023-05-23T21:11:14.441Z,12.30
2023-05-23T21:13:42.404Z,12.30
2023-05-23T21:16:14.254Z,12.30
2023-05-23T21:18:46.088Z,12.20
2023-05-23T21:21:14.412Z,12.20
2023-05-23T21:23:43.036Z,12.20
2023-05-23T21:26:18.480Z,12.20
2023-05-23T21:28:48.561Z,12.20
2023-05-23T21:31:21.597Z,12.20
2023-05-23T21:34:21.551Z,12.20
2023-05-23T21:36:54.438Z,12.20
2023-05-23T21:39:26.069Z,12.30
2023-05-23T21:41:56.239Z,12.20
2023-05-23T21:44:26.070Z,12.30
2023-05-23T21:46:54.182Z,12.30
2023-05-23T21:49:22.164Z,12.30
2023-05-23T21:51:50.502Z,12.30
2023-05-23T21:54:19.212Z,12.30
2023-05-23T21:56:47.069Z,12.40
2023-05-23T21:59:19.402Z,12.40
2023-05-23T22:01:49.577Z,12.40
2023-05-23T22:04:20.110Z,12.30
2023-05-23T22:06:54.623Z,12.30
2023-05-23T22:09:23.152Z,12.30
2023-05-23T22:11:52.928Z,12.20
2023-05-23T22:14:29.981Z,12.30
2023-05-23T22:16:59.047Z,12.20
2023-05-23T22:19:29.494Z,12.20
2023-05-23T22:22:00.319Z,12.20
2023-05-23T22:24:29.153Z,12.10
2023-05-23T22:26:58.328Z,12.10
2023-05-23T22:29:27.954Z,12.10
2023-05-23T22:31:56.426Z,12.00
2023-05-23T22:34:24.769Z,12.00
2023-05-23T22:36:53.126Z,11.90
2023-05-23T22:39:21.364Z,11.90
2023-05-23T22:41:51.678Z,11.80
2023-05-23T22:44:22.786Z,11.80
2023-05-23T22:46:52.962Z,11.70
2023-05-23T22:49:22.409Z,11.70
2023-05-23T22:51:51.715Z,11.60
2023-05-23T22:54:21.799Z,11.60
2023-05-23T22:56:50.362Z,11.50
2023-05-23T22:59:18.795Z,11.50
2023-05-23T23:01:47.169Z,11.50
2023-05-23T23:04:16.776Z,11.40
2023-05-23T23:06:44.971Z,11.40
2023-05-23T23:09:14.394Z,11.40
2023-05-23T23:11:42.797Z,11.30
2023-05-23T23:14:11.302Z,11.30
2023-05-23T23:16:39.441Z,11.20
2023-05-23T23:19:08.980Z,11.10
2023-05-23T23:21:40.872Z,11.10
2023-05-23T23:24:10.978Z,11.00
2023-05-23T23:26:40.503Z,10.90
2023-05-23T23:29:13.475Z,10.80
2023-05-23T23:31:43.794Z,10.70
2023-05-23T23:34:12.319Z,10.70
2023-05-23T23:36:43.712Z,10.60
2023-05-23T23:39:12.165Z,10.60
2023-05-23T23:41:40.908Z,10.50
2023-05-23T23:44:09.856Z,10.50
2023-05-23T23:46:38.166Z,10.50
2023-05-23T23:49:06.950Z,10.40
2023-05-23T23:51:35.069Z,10.40
2023-05-23T23:54:07.155Z,10.40
2023-05-23T23:56:35.433Z,10.30
2023-05-23T23:59:03.963Z,10.30
